Time;durP1;ratioP1;P1;durP2;ratioP2;P2;SDS_P1;SDS_P2;PMS_P1;PMS_P2;Temp;Humidity;BMP_temperature;BMP_pressure;BME280_temperature;BME280_humidity;BME280_pressure;Samples;Min_cycle;Max_cycle;Signal;HPM_P1;HPM_P2
2023/09/29 00:00:32;;;;;;;7.13;2.72;;;;;;;23.54;67.21;100962.72;5093051;28;20047;-54
2023/09/29 00:03:00;;;;;;;7.18;2.30;;;;;;;23.49;67.21;100962.28;5091271;28;20043;-54
2023/09/29 00:05:28;;;;;;;7.63;2.58;;;;;;;23.49;67.62;100960.28;5084794;28;20059;-54
2023/09/29 00:07:55;;;;;;;7.93;3.00;;;;;;;23.50;67.37;100964.72;5092967;28;20402;-53
2023/09/29 00:10:23;;;;;;;4.75;2.50;;;;;;;23.50;67.33;100955.47;5086716;28;20231;-52
2023/09/29 00:12:50;;;;;;;7.68;2.97;;;;;;;23.56;67.20;100960.31;5091801;28;20063;-52
2023/09/29 00:15:19;;;;;;;8.32;2.60;;;;;;;23.58;67.31;100957.09;5096866;28;20048;-48
2023/09/29 00:17:46;;;;;;;8.40;2.53;;;;;;;23.54;67.54;100945.84;5078184;28;20051;-53
2023/09/29 00:20:19;;;;;;;5.13;2.33;;;;;;;23.52;67.51;100947.47;5096669;28;20663;-51
2023/09/29 00:22:47;;;;;;;10.05;2.53;;;;;;;23.56;67.43;100951.88;5096890;28;20048;-50
2023/09/29 00:25:14;;;;;;;7.05;2.38;;;;;;;23.52;67.62;100939.03;5094949;28;20036;-51
2023/09/29 00:27:42;;;;;;;5.45;2.60;;;;;;;23.57;67.48;100942.25;5096560;28;20048;-53
2023/09/29 00:30:12;;;;;;;5.75;2.20;;;;;;;23.57;67.57;100944.25;5096114;28;20372;-55
2023/09/29 00:32:47;;;;;;;6.90;2.60;;;;;;;23.58;67.59;100934.59;5096189;28;20052;-56
2023/09/29 00:35:24;;;;;;;5.43;2.50;;;;;;;23.58;67.30;100941.06;5077735;28;20036;-55
2023/09/29 00:37:57;;;;;;;5.00;2.35;;;;;;;23.57;67.56;100935.81;5074723;28;20074;-57
2023/09/29 00:40:25;;;;;;;5.35;2.40;;;;;;;23.58;67.75;100937.41;5096345;28;20056;-51
2023/09/29 00:42:53;;;;;;;7.57;2.67;;;;;;;23.59;68.01;100937.03;5071469;28;20567;-49
2023/09/29 00:45:23;;;;;;;7.63;2.75;;;;;;;23.56;67.96;100934.19;5076820;28;20687;-53
2023/09/29 00:47:52;;;;;;;4.97;2.20;;;;;;;23.54;68.00;100936.63;5092585;28;20403;-49
2023/09/29 00:50:20;;;;;;;6.20;2.22;;;;;;;23.57;68.14;100935.81;5095786;28;20051;-53
2023/09/29 00:52:50;;;;;;;5.80;2.30;;;;;;;23.59;67.99;100942.66;5077175;28;20494;-54
2023/09/29 00:55:22;;;;;;;7.32;2.40;;;;;;;23.62;67.93;100941.88;5096062;28;20051;-52
2023/09/29 00:57:51;;;;;;;5.07;2.10;;;;;;;23.63;68.42;100942.66;5075918;28;20044;-53
2023/09/29 01:00:29;;;;;;;5.90;2.28;;;;;;;23.55;68.59;100924.16;5095683;28;20439;-53
2023/09/29 01:03:05;;;;;;;6.82;2.50;;;;;;;23.52;68.86;100913.72;5062196;28;20055;-51
2023/09/29 01:05:43;;;;;;;6.47;2.30;;;;;;;23.52;68.88;100899.66;5087463;28;20388;-51
2023/09/29 01:08:19;;;;;;;4.95;2.10;;;;;;;23.39;69.47;100893.56;5075461;28;20047;-51
2023/09/29 01:10:47;;;;;;;7.13;2.70;;;;;;;22.95;71.63;100895.72;5057361;28;20055;-52
2023/09/29 01:13:15;;;;;;;6.60;2.65;;;;;;;23.09;71.16;100898.63;5077352;28;20399;-52
2023/09/29 01:15:42;;;;;;;6.90;2.65;;;;;;;22.97;72.02;100890.53;5095133;28;20054;-50
2023/09/29 01:18:10;;;;;;;7.97;2.50;;;;;;;23.20;70.98;100885.44;5075612;28;20052;-46
2023/09/29 01:20:40;;;;;;;4.95;2.30;;;;;;;23.33;70.56;100889.53;5094249;28;20051;-53
2023/09/29 01:23:08;;;;;;;5.13;2.40;;;;;;;23.06;71.38;100890.97;5092117;28;20055;-51
2023/09/29 01:25:36;;;;;;;7.10;2.45;;;;;;;23.19;70.85;100898.66;5093990;28;20044;-50
2023/09/29 01:28:05;;;;;;;5.70;2.20;;;;;;;23.11;71.42;100893.41;5074970;28;20052;-48
2023/09/29 01:30:33;;;;;;;6.20;2.33;;;;;;;23.09;71.60;100895.81;5092213;28;20048;-51
2023/09/29 01:33:00;;;;;;;4.90;2.15;;;;;;;23.25;70.87;100894.28;5094886;28;20418;-48
2023/09/29 01:35:28;;;;;;;4.70;2.20;;;;;;;23.36;70.42;100900.78;5078059;28;20055;-51
2023/09/29 01:37:59;;;;;;;6.25;2.72;;;;;;;23.41;70.19;100896.81;5094945;28;20422;-53
2023/09/29 01:40:28;;;;;;;4.25;2.10;;;;;;;23.41;70.24;100891.97;5091186;28;20055;-53
2023/09/29 01:42:56;;;;;;;7.65;2.30;;;;;;;23.42;70.13;100902.03;5093560;28;20527;-51
2023/09/29 01:45:25;;;;;;;5.63;2.58;;;;;;;23.47;69.92;100911.28;5092735;28;20051;-55
2023/09/29 01:47:54;;;;;;;5.63;2.15;;;;;;;23.45;70.06;100905.25;5093536;28;20040;-50
2023/09/29 01:50:22;;;;;;;5.30;2.20;;;;;;;23.45;69.93;100897.59;5095108;28;20067;-50
2023/09/29 01:52:50;;;;;;;8.13;2.45;;;;;;;23.50;69.92;100893.63;5070296;28;20051;-52
2023/09/29 01:55:19;;;;;;;7.13;2.00;;;;;;;23.56;69.47;100895.63;5093955;28;20391;-54
2023/09/29 01:57:48;;;;;;;6.30;2.10;;;;;;;23.58;69.17;100896.06;5075231;28;20538;-52
2023/09/29 02:00:25;;;;;;;5.40;2.28;;;;;;;23.57;69.30;100904.88;5075406;28;20040;-54
2023/09/29 02:02:53;;;;;;;7.88;3.92;;;;;;;23.58;69.26;100893.25;5076017;28;20534;-51
2023/09/29 02:05:22;;;;;;;7.65;3.05;;;;;;;23.63;69.10;100892.84;5075252;28;20048;-52
2023/09/29 02:07:50;;;;;;;5.93;2.45;;;;;;;23.64;68.82;100894.44;5075790;28;20040;-50
2023/09/29 02:10:21;;;;;;;6.72;2.30;;;;;;;23.62;69.11;100891.25;5075551;28;20047;-51
2023/09/29 02:12:54;;;;;;;5.45;2.22;;;;;;;23.62;68.78;100901.69;5094463;28;20051;-55
2023/09/29 02:15:21;;;;;;;5.30;2.10;;;;;;;23.57;69.00;100900.09;5076062;28;20065;-51
2023/09/29 02:17:50;;;;;;;6.00;2.10;;;;;;;23.58;68.86;100912.94;5075430;28;20055;-50
2023/09/29 02:20:20;;;;;;;6.72;2.30;;;;;;;23.54;69.10;100908.50;5075249;28;20052;-51
2023/09/29 02:22:50;;;;;;;5.13;2.13;;;;;;;23.50;69.14;100922.53;5075598;28;20052;-54
2023/09/29 02:25:18;;;;;;;4.95;1.90;;;;;;;23.53;68.85;100918.94;5075953;28;20741;-54
2023/09/29 02:27:46;;;;;;;6.05;2.15;;;;;;;23.51;68.83;100915.72;5075853;28;20048;-52
2023/09/29 02:30:14;;;;;;;6.38;2.40;;;;;;;23.48;68.99;100921.31;5075299;28;20514;-51
2023/09/29 02:32:41;;;;;;;5.75;2.03;;;;;;;23.45;68.70;100922.13;5076089;28;20055;-55
2023/09/29 02:35:10;;;;;;;4.07;1.95;;;;;;;23.47;68.73;100925.34;5075817;28;20055;-49
2023/09/29 02:37:38;;;;;;;4.43;2.10;;;;;;;23.45;68.64;100925.72;5075206;28;20070;-53
2023/09/29 02:40:11;;;;;;;4.97;2.15;;;;;;;23.48;68.30;100922.13;5093605;28;20384;-52
2023/09/29 02:42:40;;;;;;;4.63;1.90;;;;;;;23.48;68.09;100927.75;5093365;28;20060;-52
2023/09/29 02:45:07;;;;;;;6.10;1.90;;;;;;;23.42;68.23;100921.72;5093171;28;20063;-53
2023/09/29 02:47:35;;;;;;;5.85;1.90;;;;;;;23.45;68.37;100908.06;5088784;28;20056;-53
2023/09/29 02:50:04;;;;;;;4.68;1.85;;;;;;;23.50;68.48;100897.25;5093180;28;20044;-54
2023/09/29 02:52:32;;;;;;;4.95;2.08;;;;;;;23.46;68.88;100907.66;5074083;28;20066;-53
2023/09/29 02:54:59;;;;;;;4.25;1.80;;;;;;;23.42;68.53;100899.22;5075674;28;20514;-51
2023/09/29 02:57:26;;;;;;;4.43;1.65;;;;;;;23.39;68.52;100894.38;5074390;28;20067;-51
2023/09/29 02:59:54;;;;;;;5.97;2.03;;;;;;;23.36;68.70;100903.59;5093236;28;20118;-54
2023/09/29 03:02:22;;;;;;;7.78;1.98;;;;;;;23.39;68.84;100908.44;5092811;28;20070;-51
2023/09/29 03:04:51;;;;;;;5.65;2.08;;;;;;;23.38;68.74;100920.06;5091796;28;20067;-53
2023/09/29 03:07:18;;;;;;;6.22;1.77;;;;;;;23.41;68.54;100922.09;5093562;28;20044;-52
2023/09/29 03:09:45;;;;;;;4.97;1.70;;;;;;;23.42;68.82;100909.66;5093737;28;20047;-51
2023/09/29 03:12:13;;;;;;;4.07;1.55;;;;;;;23.53;68.17;100910.50;5093048;28;20036;-55
2023/09/29 03:14:40;;;;;;;4.05;1.95;;;;;;;23.43;68.77;100905.66;5088029;28;20052;-52
2023/09/29 03:17:08;;;;;;;7.70;2.17;;;;;;;23.45;68.58;100903.22;5088789;28;20407;-53
2023/09/29 03:19:36;;;;;;;4.18;1.83;;;;;;;23.39;68.71;100911.25;5087937;28;20048;-51
2023/09/29 03:22:03;;;;;;;4.78;1.98;;;;;;;23.38;68.80;100897.56;5092547;28;20048;-55
2023/09/29 03:24:31;;;;;;;5.60;2.10;;;;;;;23.36;69.01;100902.81;5088217;28;20056;-54
2023/09/29 03:26:59;;;;;;;3.97;1.88;;;;;;;23.39;69.17;100919.69;5075404;28;20055;-53
2023/09/29 03:29:26;;;;;;;6.15;1.88;;;;;;;23.34;69.25;100913.63;5093230;28;20407;-51
2023/09/29 03:31:54;;;;;;;5.03;1.90;;;;;;;23.33;69.42;100918.44;5093124;28;20040;-50
2023/09/29 03:34:23;;;;;;;5.75;2.10;;;;;;;23.46;69.10;100910.47;5092314;28;20048;-54
2023/09/29 03:36:50;;;;;;;6.22;2.17;;;;;;;23.37;69.39;100910.03;5087915;28;20052;-51
2023/09/29 03:39:18;;;;;;;5.95;2.20;;;;;;;23.34;69.77;100919.25;5074690;28;20044;-54
2023/09/29 03:41:46;;;;;;;4.90;2.03;;;;;;;23.27;69.71;100914.38;5074804;28;20115;-54
2023/09/29 03:44:13;;;;;;;4.97;2.20;;;;;;;23.26;69.91;100911.94;5058312;28;20074;-50
2023/09/29 03:46:40;;;;;;;5.63;2.13;;;;;;;23.23;70.16;100904.31;5088015;28;20052;-53
2023/09/29 03:49:11;;;;;;;6.22;2.40;;;;;;;23.23;70.08;100898.69;5085043;28;20056;-49
2023/09/29 03:51:39;;;;;;;5.43;2.28;;;;;;;23.20;70.14;100903.09;5093353;28;20044;-52
2023/09/29 03:54:09;;;;;;;6.35;2.40;;;;;;;23.21;70.11;100903.88;5086885;28;20047;-50
2023/09/29 03:56:36;;;;;;;5.78;2.20;;;;;;;23.24;69.70;100911.56;5092831;28;20052;-49
2023/09/29 03:59:03;;;;;;;7.90;2.70;;;;;;;23.23;70.17;100907.94;5095913;28;20054;-53
2023/09/29 04:01:31;;;;;;;6.55;2.47;;;;;;;23.23;69.70;100910.75;5077274;28;20059;-54
2023/09/29 04:03:58;;;;;;;5.68;2.15;;;;;;;23.22;69.83;100922.38;5096984;28;20066;-52
2023/09/29 04:06:25;;;;;;;6.75;2.50;;;;;;;23.15;70.28;100919.53;5093869;28;20465;-50
2023/09/29 04:08:54;;;;;;;7.65;2.25;;;;;;;23.16;70.17;100918.31;5095391;28;20051;-51
2023/09/29 04:11:21;;;;;;;6.82;2.50;;;;;;;23.19;70.20;100934.41;5095005;28;20048;-50
2023/09/29 04:13:49;;;;;;;6.35;2.30;;;;;;;23.15;70.30;100942.03;5096035;28;20118;-55
2023/09/29 04:16:17;;;;;;;6.25;2.33;;;;;;;23.19;70.05;100949.25;5095367;28;20499;-54
2023/09/29 04:18:44;;;;;;;6.50;2.53;;;;;;;23.19;70.30;100962.50;5095654;28;20043;-50
2023/09/29 04:21:13;;;;;;;6.60;2.55;;;;;;;23.18;69.88;100967.34;5088500;28;20608;-56
2023/09/29 04:23:42;;;;;;;7.18;2.78;;;;;;;23.17;69.94;100976.94;5080916;28;20063;-55
2023/09/29 04:26:16;;;;;;;6.15;2.58;;;;;;;23.07;70.60;100980.50;5077247;28;20051;-49
2023/09/29 04:28:44;;;;;;;5.95;2.63;;;;;;;23.12;70.41;100977.31;5090580;28;20044;-51
2023/09/29 04:31:16;;;;;;;6.88;2.50;;;;;;;23.13;70.55;100990.19;5094953;28;20051;-57
2023/09/29 04:33:43;;;;;;;9.52;2.90;;;;;;;23.16;70.41;100972.53;5077407;28;20044;-55
2023/09/29 04:36:11;;;;;;;6.97;2.40;;;;;;;23.18;70.37;100975.78;5072461;28;20040;-55
2023/09/29 04:38:41;;;;;;;9.60;3.30;;;;;;;23.29;69.89;100973.84;5078311;28;20048;-49
2023/09/29 04:41:08;;;;;;;6.40;2.50;;;;;;;23.12;70.48;100980.13;5092126;28;20044;-52
2023/09/29 04:43:35;;;;;;;7.97;3.22;;;;;;;23.17;70.47;100976.94;5096916;28;20044;-50
2023/09/29 04:46:02;;;;;;;6.55;2.58;;;;;;;23.15;70.60;100981.38;5094925;28;20043;-52
2023/09/29 04:48:30;;;;;;;9.02;3.45;;;;;;;23.13;70.74;100986.56;5077957;28;20055;-54
2023/09/29 04:50:58;;;;;;;7.85;3.08;;;;;;;23.18;70.33;100978.56;5095930;28;20059;-54
2023/09/29 04:53:25;;;;;;;7.65;2.97;;;;;;;23.28;69.98;100991.09;5095946;28;20059;-51
2023/09/29 04:55:52;;;;;;;9.48;3.60;;;;;;;23.33;69.57;100990.72;5095013;28;20048;-54
2023/09/29 04:58:19;;;;;;;8.70;3.58;;;;;;;23.30;69.70;100995.16;5092354;28;20051;-51
2023/09/29 05:00:47;;;;;;;10.95;3.38;;;;;;;23.26;69.81;100991.47;5076956;28;20048;-53
2023/09/29 05:03:14;;;;;;;11.90;4.03;;;;;;;23.29;69.71;100990.69;5095233;28;20048;-50
2023/09/29 05:05:41;;;;;;;9.15;3.63;;;;;;;23.29;69.53;100995.53;5095789;28;21320;-51
2023/09/29 05:08:09;;;;;;;12.95;3.90;;;;;;;23.27;69.98;100992.28;5095846;28;20044;-57
2023/09/29 05:10:36;;;;;;;13.00;3.80;;;;;;;23.25;69.93;100992.69;5094840;28;20119;-56
2023/09/29 05:13:04;;;;;;;11.10;3.80;;;;;;;23.25;69.93;100989.03;5095004;28;20475;-54
2023/09/29 05:15:32;;;;;;;13.88;4.25;;;;;;;23.28;69.85;100993.91;5076790;28;20052;-58
2023/09/29 05:17:59;;;;;;;9.15;3.85;;;;;;;23.26;70.00;101001.91;5091693;28;20036;-52
2023/09/29 05:20:27;;;;;;;10.80;4.13;;;;;;;23.29;69.65;101013.19;5095058;28;20059;-56
2023/09/29 05:22:54;;;;;;;10.05;4.30;;;;;;;23.30;70.11;101016.81;5091960;28;20048;-58
2023/09/29 05:25:21;;;;;;;11.60;4.10;;;;;;;23.28;70.10;101014.41;5094419;28;20067;-55
2023/09/29 05:27:49;;;;;;;12.07;3.70;;;;;;;23.31;69.83;101024.03;5094671;28;20470;-55
2023/09/29 05:30:19;;;;;;;9.52;4.47;;;;;;;23.34;69.39;101015.63;5077275;28;20059;-51
2023/09/29 05:32:46;;;;;;;9.75;3.95;;;;;;;23.40;69.19;101024.50;5093993;28;20052;-56
2023/09/29 05:35:13;;;;;;;11.13;4.03;;;;;;;23.45;68.78;101024.13;5076826;28;20055;-56
2023/09/29 05:37:40;;;;;;;11.10;4.63;;;;;;;23.48;68.75;101026.19;5094798;28;20044;-55
2023/09/29 05:40:08;;;;;;;12.20;4.18;;;;;;;23.52;68.60;101031.81;5077159;28;20044;-54
2023/09/29 05:42:36;;;;;;;12.15;4.18;;;;;;;23.51;68.51;101042.25;5073563;28;20040;-55
2023/09/29 05:45:17;;;;;;;11.55;4.32;;;;;;;23.44;68.79;101053.47;5093401;28;20145;-55
2023/09/29 05:47:47;;;;;;;10.55;4.18;;;;;;;23.52;68.35;101055.09;5088599;28;20056;-54
2023/09/29 05:50:15;;;;;;;15.13;5.35;;;;;;;23.53;68.49;101042.66;5095290;28;20055;-54
2023/09/29 05:52:47;;;;;;;14.57;5.07;;;;;;;23.54;68.21;101044.28;5094715;28;20071;-53
2023/09/29 05:55:34;;;;;;;13.27;4.50;;;;;;;23.48;68.36;101056.28;5094462;28;20052;-54
2023/09/29 05:58:02;;;;;;;11.07;4.70;;;;;;;23.42;68.82;101055.84;5076864;28;20040;-49
2023/09/29 06:00:30;;;;;;;12.50;4.43;;;;;;;23.35;69.12;101050.19;5075422;28;20055;-53
2023/09/29 06:02:59;;;;;;;12.70;5.38;;;;;;;23.35;68.67;101056.63;5094288;28;20036;-54
2023/09/29 06:05:28;;;;;;;15.18;5.47;;;;;;;23.35;68.95;101064.25;5075216;28;20047;-50
2023/09/29 06:07:56;;;;;;;16.73;5.82;;;;;;;23.29;69.09;101063.00;5091981;28;20051;-51
2023/09/29 06:10:25;;;;;;;13.43;5.25;;;;;;;23.29;69.03;101063.78;5092176;28;20059;-54
2023/09/29 06:12:53;;;;;;;17.17;6.07;;;;;;;23.31;68.89;101067.03;5076521;28;20538;-53
2023/09/29 06:15:21;;;;;;;15.30;5.80;;;;;;;23.31;69.29;101080.25;5093677;28;20407;-50
2023/09/29 06:17:48;;;;;;;15.32;5.30;;;;;;;23.37;68.79;101092.78;5094531;28;20047;-52
2023/09/29 06:20:16;;;;;;;16.85;6.55;;;;;;;23.34;68.76;101083.09;5075075;28;20400;-53
2023/09/29 06:22:43;;;;;;;20.40;6.30;;;;;;;23.32;68.78;101079.91;5092648;28;20032;-52
2023/09/29 06:25:11;;;;;;;17.60;6.63;;;;;;;23.32;68.74;101085.53;5094223;28;20044;-53
2023/09/29 06:27:38;;;;;;;20.13;6.75;;;;;;;23.35;68.33;101092.34;5093959;28;20056;-52
2023/09/29 06:30:06;;;;;;;20.40;7.60;;;;;;;23.35;68.33;101097.97;5094176;28;20048;-50
2023/09/29 06:32:33;;;;;;;23.50;8.30;;;;;;;23.35;67.99;101092.34;5093697;28;20036;-49
2023/09/29 06:35:01;;;;;;;22.77;6.55;;;;;;;23.34;68.17;101097.16;5093603;28;20052;-53
2023/09/29 06:37:28;;;;;;;19.98;7.13;;;;;;;23.38;67.82;101095.19;5093649;28;20609;-48
2023/09/29 06:39:55;;;;;;;20.77;6.78;;;;;;;23.36;67.83;101103.19;5075821;28;20417;-50
2023/09/29 06:42:23;;;;;;;20.23;7.47;;;;;;;23.37;67.63;101112.44;5093572;28;20047;-51
2023/09/29 06:44:51;;;;;;;20.45;7.80;;;;;;;23.41;67.43;101111.28;5075622;28;20055;-52
2023/09/29 06:47:19;;;;;;;23.58;7.90;;;;;;;23.41;66.95;101104.88;5073877;28;20059;-54
2023/09/29 06:49:46;;;;;;;21.15;8.23;;;;;;;23.46;66.88;101118.56;5093291;28;20048;-47
2023/09/29 06:52:14;;;;;;;23.35;7.38;;;;;;;23.52;66.52;101128.22;5090086;28;20044;-52
2023/09/29 06:54:41;;;;;;;23.70;8.00;;;;;;;23.19;67.77;101125.50;5093049;28;20063;-53
2023/09/29 06:57:08;;;;;;;23.63;8.40;;;;;;;22.79;68.54;101133.97;5082933;28;20451;-52
2023/09/29 06:59:36;;;;;;;27.95;8.82;;;;;;;22.76;69.13;101152.41;5070491;28;20055;-56
2023/09/29 07:02:03;;;;;;;25.63;8.57;;;;;;;22.68;68.18;101159.16;5085697;28;20051;-52
2023/09/29 07:04:32;;;;;;;29.20;9.15;;;;;;;22.53;67.99;101162.13;5073603;28;20048;-57
2023/09/29 07:07:00;;;;;;;24.08;7.95;;;;;;;22.50;70.61;101166.53;5092293;28;20044;-55
2023/09/29 07:09:28;;;;;;;29.02;8.57;;;;;;;22.37;72.41;101176.38;5089566;28;20056;-54
2023/09/29 07:11:55;;;;;;;25.33;6.95;;;;;;;22.04;69.92;101174.34;5070089;28;20616;-50
2023/09/29 07:14:23;;;;;;;25.10;8.38;;;;;;;21.71;72.98;101182.63;5078067;28;20048;-54
2023/09/29 07:16:52;;;;;;;22.30;7.05;;;;;;;21.75;71.09;101186.31;5081876;28;20388;-51
2023/09/29 07:19:20;;;;;;;24.98;7.07;;;;;;;21.74;71.78;101192.31;5069270;28;20051;-52
2023/09/29 07:21:47;;;;;;;27.60;7.13;;;;;;;21.60;72.57;101198.47;5064973;28;20506;-51
2023/09/29 07:24:14;;;;;;;27.25;8.70;;;;;;;21.89;73.31;101197.78;5072046;28;20075;-52
2023/09/29 07:26:42;;;;;;;27.20;7.00;;;;;;;22.41;71.04;101202.50;5088491;28;20063;-52
2023/09/29 07:29:11;;;;;;;25.25;6.20;;;;;;;22.83;71.90;101205.06;5089443;28;20514;-52
2023/09/29 07:31:45;;;;;;;27.13;7.35;;;;;;;22.89;71.24;101212.75;5086835;28;20044;-51
2023/09/29 07:34:15;;;;;;;27.27;6.97;;;;;;;23.08;71.90;101215.34;5072666;28;20036;-51
2023/09/29 07:36:46;;;;;;;20.55;7.05;;;;;;;23.18;70.82;101222.28;5087672;28;20048;-52
2023/09/29 07:39:15;;;;;;;20.40;6.32;;;;;;;23.28;70.33;101222.44;5048446;28;20466;-52
2023/09/29 07:41:42;;;;;;;26.60;6.90;;;;;;;22.97;70.86;101236.94;5083018;28;20044;-55
2023/09/29 07:44:10;;;;;;;23.73;6.43;;;;;;;23.09;70.92;101233.03;5086475;28;20048;-53
2023/09/29 07:46:37;;;;;;;28.10;6.75;;;;;;;23.17;70.04;101246.78;5084382;28;20531;-52
2023/09/29 07:49:05;;;;;;;19.50;6.78;;;;;;;23.25;69.98;101245.66;5069905;28;20743;-54
2023/09/29 07:51:32;;;;;;;20.70;6.07;;;;;;;23.19;69.46;101255.63;5088813;28;20051;-54
2023/09/29 07:54:00;;;;;;;20.30;6.10;;;;;;;23.10;71.00;101265.59;5086084;28;20051;-55
2023/09/29 07:56:29;;;;;;;22.40;5.75;;;;;;;22.32;70.61;101272.97;5084938;28;20056;-52
2023/09/29 07:58:57;;;;;;;19.27;5.47;;;;;;;22.76;72.92;101276.00;5090688;28;20055;-53
2023/09/29 08:01:25;;;;;;;18.40;4.72;;;;;;;23.04;71.26;101269.91;5088352;28;20048;-54
2023/09/29 08:03:52;;;;;;;18.55;5.22;;;;;;;22.99;70.64;101275.88;5067463;28;20475;-54
2023/09/29 08:06:22;;;;;;;15.57;4.97;;;;;;;22.72;72.87;101282.75;5078874;28;20052;-54
2023/09/29 08:08:49;;;;;;;19.48;5.25;;;;;;;23.24;70.34;101285.41;5087395;28;20052;-51
2023/09/29 08:11:16;;;;;;;17.67;4.57;;;;;;;23.47;68.14;101290.91;5088486;28;20051;-52
2023/09/29 08:13:43;;;;;;;13.43;4.05;;;;;;;23.10;67.93;101291.66;5079819;28;20056;-52
2023/09/29 08:16:11;;;;;;;19.52;5.30;;;;;;;23.36;68.89;101304.84;5078273;28;20040;-54
2023/09/29 08:18:38;;;;;;;19.65;4.88;;;;;;;23.46;68.68;101315.38;5086081;28;20044;-51
2023/09/29 08:21:06;;;;;;;13.25;4.30;;;;;;;23.28;69.01;101320.00;5085599;28;20036;-50
2023/09/29 08:23:33;;;;;;;14.32;4.65;;;;;;;23.34;68.70;101324.09;5085754;28;20420;-50
2023/09/29 08:26:00;;;;;;;13.18;3.63;;;;;;;23.30;68.60;101331.69;5084871;28;20040;-53
2023/09/29 08:28:27;;;;;;;14.18;4.22;;;;;;;23.27;69.13;101332.44;5086347;28;20059;-54
2023/09/29 08:30:54;;;;;;;11.75;2.40;;;;;;;23.04;67.28;101346.59;5084479;28;20040;-52
2023/09/29 08:33:24;;;;;;;14.77;3.08;;;;;;;22.79;71.03;101347.44;5083884;28;20056;-55
2023/09/29 08:36:11;;;;;;;10.98;2.75;;;;;;;22.69;70.85;101357.38;5087941;28;20052;-54
2023/09/29 08:38:38;;;;;;;14.55;2.97;;;;;;;22.08;73.03;101363.22;5088954;28;20529;-52
2023/09/29 08:41:06;;;;;;;7.32;1.75;;;;;;;21.74;71.93;101364.16;5084847;28;20414;-51
2023/09/29 08:43:33;;;;;;;12.68;2.55;;;;;;;22.30;72.40;101376.41;5088698;28;20043;-50
2023/09/29 08:46:00;;;;;;;8.85;2.00;;;;;;;21.64;74.41;101390.03;5104634;27;20048;-48
2023/09/29 08:48:29;;;;;;;9.48;2.25;;;;;;;20.95;77.21;101391.00;5091371;28;20052;-62
2023/09/29 08:51:00;;;;;;;5.60;1.30;;;;;;;20.71;76.11;101385.63;5101823;28;20414;-50
2023/09/29 08:53:28;;;;;;;5.00;1.25;;;;;;;20.71;75.85;101396.03;5090009;28;20044;-52
2023/09/29 08:55:56;;;;;;;4.90;1.27;;;;;;;21.22;73.81;101406.81;5093409;28;20434;-52
2023/09/29 08:58:23;;;;;;;5.50;1.02;;;;;;;21.50;73.81;101409.38;5091584;28;20057;-60
2023/09/29 09:00:51;;;;;;;3.42;0.82;;;;;;;20.86;74.38;101398.78;5092405;28;20048;-54
2023/09/29 09:03:19;;;;;;;7.53;1.85;;;;;;;21.14;75.85;101410.66;5092714;28;20036;-55
2023/09/29 09:05:47;;;;;;;4.47;1.13;;;;;;;21.12;73.21;101417.78;5091414;28;20048;-53
2023/09/29 09:08:16;;;;;;;3.40;1.10;;;;;;;21.44;73.47;101418.47;5091517;28;20145;-55
2023/09/29 09:10:43;;;;;;;5.30;1.20;;;;;;;21.01;75.80;101422.34;5097502;28;20060;-53
2023/09/29 09:13:10;;;;;;;3.63;1.15;;;;;;;20.98;75.98;101420.25;5093638;28;20066;-50
2023/09/29 09:15:37;;;;;;;6.63;1.00;;;;;;;21.29;72.87;101417.34;5091883;28;20058;-55
2023/09/29 09:18:06;;;;;;;5.35;1.15;;;;;;;22.05;71.41;101430.50;5057589;28;20075;-51
2023/09/29 09:20:33;;;;;;;6.75;1.63;;;;;;;22.04;71.67;101435.28;5091532;28;20062;-56
2023/09/29 09:23:02;;;;;;;5.82;1.13;;;;;;;21.67;70.45;101434.13;5095516;28;20059;-51
2023/09/29 09:25:31;;;;;;;4.22;1.13;;;;;;;21.30;72.83;101441.41;5087401;28;20047;-51
2023/09/29 09:27:58;;;;;;;3.03;0.90;;;;;;;21.39;72.66;101441.19;5079863;28;20052;-53
2023/09/29 09:30:26;;;;;;;3.60;1.08;;;;;;;21.29;71.81;101447.38;5087447;28;20052;-48
2023/09/29 09:32:56;;;;;;;5.78;1.25;;;;;;;21.10;74.42;101459.34;5087701;28;20052;-56
2023/09/29 09:35:27;;;;;;;10.40;1.45;;;;;;;21.45;73.51;101465.72;5082898;28;20044;-57
2023/09/29 09:37:56;;;;;;;6.18;1.42;;;;;;;21.67;73.51;101481.81;5078410;28;20040;-55
2023/09/29 09:40:25;;;;;;;6.57;1.85;;;;;;;22.18;71.11;101488.03;5087817;28;20070;-56
2023/09/29 09:43:02;;;;;;;6.47;1.92;;;;;;;22.10;70.72;101494.72;5067748;28;20056;-54
2023/09/29 09:45:51;;;;;;;4.35;1.35;;;;;;;21.47;72.23;101494.22;5083430;28;20052;-53
2023/09/29 09:48:20;;;;;;;8.07;1.98;;;;;;;21.25;72.98;101492.13;5073896;28;20059;-57
2023/09/29 09:50:49;;;;;;;7.30;2.00;;;;;;;22.20;70.79;101494.09;5071827;28;20055;-51
2023/09/29 09:53:18;;;;;;;14.82;5.97;;;;;;;22.20;68.67;101494.91;5051721;28;20052;-52
2023/09/29 09:55:55;;;;;;;9.23;3.33;;;;;;;21.68;71.74;101499.44;5085583;28;20054;-52
2023/09/29 09:58:23;;;;;;;9.70;2.65;;;;;;;21.67;70.22;101509.84;5067418;28;20044;-56
2023/09/29 10:00:54;;;;;;;6.70;1.80;;;;;;;21.74;70.65;101498.00;5057603;28;20055;-52
2023/09/29 10:03:24;;;;;;;9.75;2.50;;;;;;;21.96;69.76;101511.28;5085644;28;20059;-54
2023/09/29 10:05:52;;;;;;;7.13;2.47;;;;;;;21.90;67.12;101493.94;5066025;28;20052;-53
2023/09/29 10:08:24;;;;;;;13.52;2.30;;;;;;;21.80;68.76;101513.34;5086611;28;20044;-53
2023/09/29 10:10:52;;;;;;;7.30;2.00;;;;;;;21.40;68.93;101510.06;5088966;28;20040;-55
2023/09/29 10:13:19;;;;;;;7.47;2.90;;;;;;;21.78;67.75;101522.13;5087055;28;20048;-57
2023/09/29 10:16:02;;;;;;;18.20;2.75;;;;;;;21.65;70.14;101529.06;5085859;28;20048;-56
2023/09/29 10:18:30;;;;;;;7.50;2.55;;;;;;;20.91;70.06;101537.72;5089599;28;20621;-57
2023/09/29 10:21:09;;;;;;;7.43;2.30;;;;;;;21.00;68.55;101536.38;5088807;28;20517;-57
2023/09/29 10:23:53;;;;;;;8.90;2.67;;;;;;;21.34;68.41;101539.56;5072213;28;20071;-53
2023/09/29 10:26:24;;;;;;;10.23;3.00;;;;;;;21.45;68.20;101537.78;5091604;28;20036;-54
2023/09/29 10:29:00;;;;;;;9.73;3.03;;;;;;;21.45;66.73;101547.03;5071024;28;20063;-51
2023/09/29 10:31:28;;;;;;;9.15;2.58;;;;;;;21.55;69.16;101551.25;5090371;28;20051;-55
2023/09/29 10:33:57;;;;;;;11.48;2.80;;;;;;;21.62;69.57;101543.00;5091844;28;20040;-55
2023/09/29 10:36:29;;;;;;;9.68;3.10;;;;;;;22.14;67.87;101548.94;5088719;28;20051;-51
2023/09/29 10:38:58;;;;;;;9.10;2.95;;;;;;;21.38;68.15;101555.28;5089189;28;20052;-51
2023/09/29 10:41:28;;;;;;;7.70;2.80;;;;;;;21.64;67.84;101552.66;5088433;28;20037;-56
2023/09/29 10:44:04;;;;;;;9.60;3.40;;;;;;;21.76;67.40;101557.34;5084322;28;20044;-53
2023/09/29 10:46:31;;;;;;;12.75;3.10;;;;;;;21.95;67.61;101551.75;5089989;28;20055;-51
2023/09/29 10:49:00;;;;;;;8.57;3.33;;;;;;;22.00;66.50;101552.22;5092770;28;20048;-53
2023/09/29 10:51:32;;;;;;;10.75;3.58;;;;;;;22.09;67.11;101554.81;5085590;28;20060;-55
2023/09/29 10:54:06;;;;;;;9.02;3.85;;;;;;;22.21;67.87;101569.50;5087659;28;20251;-55
2023/09/29 10:56:36;;;;;;;8.20;3.33;;;;;;;21.95;67.60;101565.78;5090623;28;20071;-55
2023/09/29 10:59:06;;;;;;;9.60;3.47;;;;;;;22.20;67.60;101562.28;5091801;28;20043;-54
2023/09/29 11:01:34;;;;;;;8.90;3.55;;;;;;;22.24;62.61;101574.38;5071458;28;20048;-55
2023/09/29 11:04:05;;;;;;;10.60;4.60;;;;;;;22.56;64.57;101577.81;5086322;28;20059;-51
2023/09/29 11:06:40;;;;;;;9.60;2.97;;;;;;;22.28;64.33;101582.88;5070411;28;20041;-55
2023/09/29 11:09:07;;;;;;;8.80;2.53;;;;;;;22.25;62.71;101581.63;5091962;28;20036;-55
2023/09/29 11:11:36;;;;;;;9.20;3.03;;;;;;;22.14;66.60;101574.19;5087381;28;20075;-50
2023/09/29 11:14:04;;;;;;;7.53;3.08;;;;;;;22.72;63.21;101572.06;5069657;28;20047;-51
2023/09/29 11:16:32;;;;;;;8.85;2.83;;;;;;;22.96;61.95;101588.56;5072399;28;20055;-51
2023/09/29 11:19:10;;;;;;;11.23;2.92;;;;;;;22.37;63.35;101580.63;5089474;28;20052;-56
2023/09/29 11:21:40;;;;;;;8.85;2.88;;;;;;;22.38;63.18;101584.25;5090950;28;20059;-59
2023/09/29 11:24:13;;;;;;;7.78;2.72;;;;;;;22.87;63.38;101585.19;5091075;28;20044;-51
2023/09/29 11:26:42;;;;;;;10.85;3.15;;;;;;;22.41;62.53;101583.50;5090292;28;20051;-54
2023/09/29 11:29:39;;;;;;;7.70;2.70;;;;;;;22.73;63.90;101591.38;5092123;28;20048;-50